createdAt,value
2019-04-20T00:01:01.666Z,13.02
2019-04-20T00:03:38.310Z,13.07
2019-04-20T00:06:06.944Z,12.94
2019-04-20T00:08:41.153Z,12.58
2019-04-20T00:11:18.463Z,12.89
2019-04-20T00:13:54.877Z,12.72
2019-04-20T00:16:18.900Z,12.51
2019-04-20T00:18:54.870Z,12.56
2019-04-20T00:21:42.699Z,12.49
2019-04-20T00:24:32.405Z,12.42
2019-04-20T00:27:19.306Z,12.54
2019-04-20T00:29:49.833Z,12.08
2019-04-20T00:32:15.580Z,12.56
2019-04-20T00:34:41.669Z,12.39
2019-04-20T00:37:12.835Z,12.44
2019-04-20T00:39:44.785Z,12.41
2019-04-20T00:42:17.669Z,12.12
2019-04-20T00:44:56.386Z,12.08
2019-04-20T00:47:34.369Z,12.45
2019-04-20T00:50:05.566Z,12.20
2019-04-20T00:52:43.766Z,12.18
2019-04-20T00:55:00.102Z,12.25
2019-04-20T00:57:41.564Z,12.33
2019-04-20T01:00:21.598Z,12.17
2019-04-20T01:02:50.507Z,11.81
2019-04-20T01:05:35.430Z,11.99
2019-04-20T01:08:06.957Z,11.74
2019-04-20T01:10:46.459Z,11.80
2019-04-20T01:13:17.018Z,11.90
2019-04-20T01:15:51.579Z,12.02
2019-04-20T01:18:18.835Z,11.86
2019-04-20T01:20:49.933Z,11.95
2019-04-20T01:23:23.909Z,11.77
2019-04-20T01:26:01.237Z,11.78
2019-04-20T01:28:44.096Z,11.69
2019-04-20T01:31:12.654Z,11.87
2019-04-20T01:33:42.643Z,11.73
2019-04-20T01:36:25.499Z,11.71
2019-04-20T01:38:55.455Z,11.47
2019-04-20T01:41:11.683Z,11.59
2019-04-20T01:43:43.626Z,11.40
2019-04-20T01:46:18.944Z,11.56
2019-04-20T01:48:48.203Z,11.27
2019-04-20T01:51:25.513Z,11.48
2019-04-20T01:54:18.822Z,11.62
2019-04-20T01:56:43.495Z,11.54
2019-04-20T01:59:29.194Z,11.55
2019-04-20T02:02:18.403Z,11.60
2019-04-20T02:04:54.122Z,11.64
2019-04-20T02:07:31.441Z,11.34
2019-04-20T02:10:02.810Z,11.30
2019-04-20T02:12:34.595Z,11.27
2019-04-20T02:15:06.096Z,11.31
2019-04-20T02:17:43.317Z,11.17
2019-04-20T02:20:31.632Z,11.34
2019-04-20T02:22:58.991Z,11.22
2019-04-20T02:25:16.333Z,11.23
2019-04-20T02:27:53.176Z,10.68
2019-04-20T02:30:57.970Z,10.99
2019-04-20T02:36:15.157Z,10.73
2019-04-20T02:39:21.876Z,10.71
2019-04-20T02:44:14.345Z,10.34
2019-04-20T02:46:57.521Z,10.32
2019-04-20T02:49:34.097Z,10.51
2019-04-20T02:51:54.719Z,10.59
2019-04-20T02:57:03.378Z,10.28
2019-04-20T03:01:45.523Z,10.27
2019-04-20T03:04:04.982Z,10.24
2019-04-20T03:06:53.847Z,10.15
2019-04-20T03:09:33.088Z,10.29
2019-04-20T03:12:03.313Z,10.07
2019-04-20T03:14:29.275Z,10.30
2019-04-20T03:17:10.345Z,10.29
2019-04-20T03:19:31.272Z,10.21
2019-04-20T03:22:13.699Z,10.18
2019-04-20T03:24:51.392Z,10.23
2019-04-20T03:27:30.654Z,10.39
2019-04-20T03:30:40.328Z,10.22
2019-04-20T03:35:29.817Z,10.32
2019-04-20T03:37:56.834Z,9.92
2019-04-20T03:40:21.589Z,9.58
2019-04-20T03:42:38.273Z,9.54
2019-04-20T03:45:14.970Z,9.62
2019-04-20T03:47:58.705Z,9.88
2019-04-20T03:50:41.323Z,9.80
2019-04-20T03:53:14.199Z,9.71
2019-04-20T03:56:21.567Z,9.73
2019-04-20T03:58:47.194Z,10.09
2019-04-20T04:01:44.482Z,9.73
2019-04-20T04:04:10.646Z,10.04
2019-04-20T04:06:33.093Z,10.08
2019-04-20T04:09:02.754Z,10.06
2019-04-20T04:11:40.309Z,9.66
2019-04-20T04:13:58.753Z,9.23
2019-04-20T04:16:37.235Z,9.64
2019-04-20T04:19:15.398Z,9.48
2019-04-20T04:21:51.778Z,9.63
2019-04-20T04:24:22.918Z,9.81
2019-04-20T04:26:54.849Z,9.53
2019-04-20T04:29:35.638Z,9.77
2019-04-20T04:32:12.778Z,10.00
2019-04-20T04:34:40.507Z,9.87
2019-04-20T04:37:13.173Z,9.67
2019-04-20T04:39:47.476Z,9.76
2019-04-20T04:42:35.153Z,9.67
2019-04-20T04:44:44.701Z,9.80
2019-04-20T04:47:06.699Z,9.43
2019-04-20T04:49:40.191Z,9.81
2019-04-20T04:52:13.369Z,9.92
2019-04-20T04:54:52.956Z,9.80
2019-04-20T04:57:14.009Z,10.03
2019-04-20T04:59:45.058Z,9.65
2019-04-20T05:02:16.216Z,10.08
2019-04-20T05:05:31.377Z,9.95
2019-04-20T05:07:54.455Z,9.74
2019-04-20T05:10:15.978Z,10.06
2019-04-20T05:12:48.196Z,9.83
2019-04-20T05:15:32.414Z,9.34
2019-04-20T05:18:16.175Z,9.74
2019-04-20T05:20:54.644Z,9.96
2019-04-20T05:23:24.323Z,10.21
2019-04-20T05:26:14.316Z,9.97
2019-04-20T05:28:38.093Z,9.73
2019-04-20T05:31:02.951Z,9.83
2019-04-20T05:33:58.486Z,9.84
2019-04-20T05:36:23.296Z,10.20
2019-04-20T05:39:02.735Z,10.46
2019-04-20T05:41:26.819Z,10.61
2019-04-20T05:44:16.728Z,10.88
2019-04-20T05:46:59.969Z,11.07
2019-04-20T05:49:27.012Z,11.42
2019-04-20T05:52:11.801Z,11.22
2019-04-20T05:54:39.228Z,11.29
2019-04-20T05:57:17.213Z,11.73
2019-04-20T05:59:46.965Z,11.78
2019-04-20T06:02:17.021Z,12.01
2019-04-20T06:07:20.927Z,12.22
2019-04-20T06:09:54.379Z,12.29
2019-04-20T06:12:33.099Z,12.49
2019-04-20T06:15:12.761Z,12.64
2019-04-20T06:18:16.713Z,12.74
2019-04-20T06:21:00.453Z,12.83
2019-04-20T06:23:38.646Z,12.34
2019-04-20T06:26:33.618Z,12.62
2019-04-20T06:28:35.346Z,12.96
2019-04-20T06:31:18.019Z,13.08
2019-04-20T06:34:27.979Z,13.43
2019-04-20T06:36:51.911Z,13.13
2019-04-20T06:39:27.739Z,13.24
2019-04-20T06:44:31.977Z,13.44
2019-04-20T06:52:37.417Z,14.13
2019-04-20T06:55:05.536Z,14.43
2019-04-20T06:57:50.309Z,14.49
2019-04-20T07:00:18.000Z,14.63
2019-04-20T07:02:53.050Z,15.20
2019-04-20T07:08:00.783Z,15.53
2019-04-20T07:10:34.330Z,15.64
2019-04-20T07:12:55.649Z,15.54
2019-04-20T07:15:43.675Z,19.36
2019-04-20T07:18:26.179Z,19.44
2019-04-20T07:21:09.523Z,19.19
2019-04-20T07:23:42.692Z,17.52
2019-04-20T07:26:16.576Z,16.63
2019-04-20T07:28:55.731Z,17.00
2019-04-20T07:31:18.108Z,18.04
2019-04-20T07:33:52.045Z,17.82
2019-04-20T07:36:32.251Z,18.34
2019-04-20T07:39:03.990Z,18.26
2019-04-20T07:41:43.280Z,17.76
2019-04-20T07:44:11.778Z,17.19
2019-04-20T07:46:46.879Z,17.41
2019-04-20T07:49:12.737Z,18.01
2019-04-20T07:51:29.660Z,18.49
2019-04-20T07:54:24.741Z,17.86
2019-04-20T07:56:47.643Z,17.89
2019-04-20T07:59:14.359Z,17.68
2019-04-20T08:02:20.958Z,17.68
2019-04-20T08:04:56.352Z,18.09
2019-04-20T08:07:13.603Z,17.81
2019-04-20T08:09:51.458Z,18.39
2019-04-20T08:12:49.937Z,18.61
2019-04-20T08:15:32.434Z,18.93
2019-04-20T08:17:53.909Z,19.06
2019-04-20T08:20:23.410Z,18.97
2019-04-20T08:22:58.796Z,18.14
2019-04-20T08:25:20.273Z,19.05
2019-04-20T08:28:25.003Z,18.61
2019-04-20T08:31:26.886Z,18.64
2019-04-20T08:34:12.154Z,18.88
2019-04-20T08:36:39.258Z,18.04
2019-04-20T08:39:30.458Z,17.95
2019-04-20T08:41:45.271Z,18.94
2019-04-20T08:44:42.650Z,19.20
2019-04-20T08:47:01.800Z,18.95
2019-04-20T08:49:29.791Z,19.34
2019-04-20T08:52:08.271Z,18.88
2019-04-20T08:54:26.690Z,18.80
2019-04-20T08:56:47.986Z,18.57
2019-04-20T08:59:14.301Z,19.25
2019-04-20T09:01:46.696Z,19.01
2019-04-20T09:04:22.974Z,19.17
2019-04-20T09:07:02.353Z,19.09
2019-04-20T09:10:00.557Z,18.82
2019-04-20T09:12:15.832Z,19.02
2019-04-20T09:14:34.673Z,19.38
2019-04-20T09:17:13.842Z,19.78
2019-04-20T09:19:52.733Z,19.82
2019-04-20T09:22:49.464Z,20.10
2019-04-20T09:25:49.370Z,19.43
2019-04-20T09:28:15.653Z,19.65
2019-04-20T09:30:52.217Z,19.84
2019-04-20T09:33:51.678Z,19.64
2019-04-20T09:36:24.003Z,19.47
2019-04-20T09:39:26.785Z,19.82
2019-04-20T09:42:08.802Z,20.08
2019-04-20T09:44:42.872Z,20.36
2019-04-20T09:47:14.183Z,20.25
2019-04-20T09:49:56.844Z,20.27
2019-04-20T09:52:31.221Z,20.01
2019-04-20T09:55:04.295Z,19.60
2019-04-20T09:57:43.865Z,19.75
2019-04-20T10:00:12.081Z,19.89
2019-04-20T10:02:32.555Z,19.93
2019-04-20T10:05:02.033Z,19.93
2019-04-20T10:07:37.277Z,20.52
2019-04-20T10:10:20.293Z,20.27
2019-04-20T10:12:41.871Z,20.21
2019-04-20T10:15:19.023Z,20.76
2019-04-20T10:17:47.807Z,20.59
2019-04-20T10:20:26.740Z,20.70
2019-04-20T10:22:51.799Z,20.26
2019-04-20T10:25:22.921Z,20.41
2019-04-20T10:27:54.073Z,20.61
2019-04-20T10:30:26.316Z,20.86
2019-04-20T10:32:57.566Z,21.49
2019-04-20T10:35:29.757Z,21.55
2019-04-20T10:38:07.606Z,21.23
2019-04-20T10:40:51.857Z,20.90
2019-04-20T10:43:12.111Z,21.12
2019-04-20T10:45:44.750Z,21.31
2019-04-20T10:48:17.358Z,21.37
2019-04-20T10:50:49.312Z,21.64
2019-04-20T10:53:21.786Z,21.65
2019-04-20T10:55:53.527Z,22.10
2019-04-20T10:58:25.283Z,21.78
2019-04-20T11:00:57.687Z,21.58
2019-04-20T11:03:28.980Z,20.94
2019-04-20T11:06:00.711Z,21.19
2019-04-20T11:08:32.878Z,21.23
2019-04-20T11:11:12.925Z,21.27
2019-04-20T11:13:37.488Z,21.56
2019-04-20T11:16:08.726Z,21.88
2019-04-20T11:18:39.929Z,21.32
2019-04-20T11:21:11.412Z,21.34
2019-04-20T11:23:42.590Z,21.77
2019-04-20T11:26:14.033Z,21.83
2019-04-20T11:28:46.213Z,21.44
2019-04-20T11:31:17.546Z,21.50
2019-04-20T11:33:48.531Z,21.36
2019-04-20T11:36:19.668Z,21.91
2019-04-20T11:38:51.165Z,22.43
2019-04-20T11:41:26.176Z,22.50
2019-04-20T11:43:55.741Z,22.76
2019-04-20T11:46:27.044Z,22.61
2019-04-20T11:48:59.363Z,22.83
2019-04-20T11:51:31.763Z,22.86
2019-04-20T11:54:04.208Z,22.60
2019-04-20T11:56:40.353Z,22.03
2019-04-20T11:59:09.572Z,22.08
2019-04-20T12:02:14.303Z,22.24
2019-04-20T12:05:04.047Z,22.64
2019-04-20T12:07:24.786Z,22.81
2019-04-20T12:10:04.748Z,22.50
2019-04-20T12:12:40.095Z,22.81
2019-04-20T12:15:04.387Z,22.84
2019-04-20T12:17:35.686Z,22.93
2019-04-20T12:20:08.089Z,22.84
2019-04-20T12:22:40.147Z,23.24
2019-04-20T12:25:12.060Z,23.34
2019-04-20T12:27:50.758Z,23.10
2019-04-20T12:30:17.545Z,22.91
2019-04-20T12:32:52.616Z,22.80
2019-04-20T12:35:22.825Z,22.64
2019-04-20T12:37:54.667Z,22.40
2019-04-20T12:40:26.331Z,23.07
2019-04-20T12:42:57.579Z,23.36
2019-04-20T12:45:29.350Z,22.69
2019-04-20T12:48:01.748Z,22.23
2019-04-20T12:50:32.948Z,22.55
2019-04-20T12:53:04.433Z,22.38
2019-04-20T12:55:36.760Z,22.49
2019-04-20T12:58:08.339Z,22.22
2019-04-20T13:00:49.676Z,22.55
2019-04-20T13:03:21.545Z,22.82
2019-04-20T13:05:54.100Z,22.47
2019-04-20T13:08:33.656Z,22.34
2019-04-20T13:11:08.705Z,22.29
2019-04-20T13:13:52.605Z,22.26
2019-04-20T13:16:34.407Z,22.31
2019-04-20T13:19:05.757Z,22.13
2019-04-20T13:21:36.858Z,22.32
2019-04-20T13:24:09.290Z,21.78
2019-04-20T13:26:40.642Z,21.82
2019-04-20T13:29:12.955Z,22.05
2019-04-20T13:31:44.114Z,22.41
2019-04-20T13:34:15.350Z,22.27
2019-04-20T13:36:46.365Z,22.24
2019-04-20T13:39:17.334Z,22.09
2019-04-20T13:42:00.934Z,22.49
2019-04-20T13:44:22.030Z,22.67
2019-04-20T13:46:53.109Z,22.41
2019-04-20T13:49:24.984Z,22.42
2019-04-20T13:51:57.066Z,22.62
2019-04-20T13:54:28.622Z,22.19
2019-04-20T13:57:02.007Z,22.40
2019-04-20T13:59:46.207Z,22.38
2019-04-20T14:02:42.696Z,22.30
2019-04-20T14:05:15.404Z,22.33
2019-04-20T14:07:47.277Z,22.24
2019-04-20T14:10:19.637Z,22.19
2019-04-20T14:13:00.566Z,22.38
2019-04-20T14:15:24.818Z,22.02
2019-04-20T14:17:57.179Z,21.96
2019-04-20T14:20:29.748Z,22.08
2019-04-20T14:23:01.074Z,22.29
2019-04-20T14:25:33.255Z,22.23
2019-04-20T14:28:04.956Z,22.11
2019-04-20T14:30:37.290Z,22.20
2019-04-20T14:33:08.619Z,22.03
2019-04-20T14:35:40.837Z,22.25
2019-04-20T14:38:13.097Z,22.20
2019-04-20T14:40:44.270Z,21.93
2019-04-20T14:43:17.120Z,21.72
2019-04-20T14:45:48.226Z,21.99
2019-04-20T14:48:20.643Z,21.94
2019-04-20T14:50:51.944Z,21.89
2019-04-20T14:53:23.307Z,21.84
2019-04-20T14:55:55.578Z,21.89
2019-04-20T14:58:57.782Z,21.96
2019-04-20T15:01:40.896Z,21.83
2019-04-20T15:04:17.791Z,21.88
2019-04-20T15:06:44.825Z,21.67
2019-04-20T15:09:16.937Z,21.74
2019-04-20T15:11:48.486Z,21.54
2019-04-20T15:14:20.878Z,21.95
2019-04-20T15:16:52.866Z,22.16
2019-04-20T15:19:37.583Z,22.45
2019-04-20T15:22:27.574Z,21.97
2019-04-20T15:24:59.845Z,21.80
2019-04-20T15:27:31.088Z,21.94
2019-04-20T15:30:02.739Z,22.08
2019-04-20T15:32:34.752Z,21.80
2019-04-20T15:35:07.120Z,21.95
2019-04-20T15:37:39.517Z,21.77
2019-04-20T15:40:11.219Z,21.85
2019-04-20T15:42:51.617Z,21.89
2019-04-20T15:45:15.763Z,22.05
2019-04-20T15:47:47.976Z,21.79
2019-04-20T15:50:20.247Z,21.92
2019-04-20T15:52:54.485Z,21.95
2019-04-20T15:55:30.368Z,22.07
2019-04-20T15:57:57.607Z,21.78
2019-04-20T16:00:28.735Z,21.97
2019-04-20T16:03:03.477Z,21.70
2019-04-20T16:05:42.970Z,21.81
2019-04-20T16:08:30.276Z,21.63
2019-04-20T16:11:01.625Z,21.79
2019-04-20T16:13:37.974Z,21.70
2019-04-20T16:16:07.435Z,21.54
2019-04-20T16:18:39.125Z,21.55
2019-04-20T16:21:16.144Z,21.24
2019-04-20T16:23:48.554Z,20.98
2019-04-20T16:26:27.616Z,21.08
2019-04-20T16:28:59.745Z,21.21
2019-04-20T16:31:30.985Z,21.22
2019-04-20T16:34:03.222Z,21.03
2019-04-20T16:36:34.708Z,20.93
2019-04-20T16:39:10.623Z,20.92
2019-04-20T16:41:42.535Z,20.73
2019-04-20T16:44:13.631Z,20.66
2019-04-20T16:46:45.821Z,20.73
2019-04-20T16:49:19.280Z,20.72
2019-04-20T16:51:52.632Z,20.66
2019-04-20T16:54:23.796Z,20.73
2019-04-20T16:56:54.999Z,20.53
2019-04-20T16:59:26.152Z,20.64
2019-04-20T17:01:58.250Z,20.44
2019-04-20T17:04:30.851Z,20.33
2019-04-20T17:07:25.008Z,20.17
2019-04-20T17:09:56.289Z,20.16
2019-04-20T17:12:28.057Z,20.22
2019-04-20T17:14:59.330Z,20.16
2019-04-20T17:17:31.478Z,20.43
2019-04-20T17:20:03.885Z,20.47
2019-04-20T17:22:35.188Z,19.88
2019-04-20T17:25:08.317Z,19.95
2019-04-20T17:27:53.191Z,19.75
2019-04-20T17:30:59.312Z,19.92
2019-04-20T17:33:55.139Z,20.02
2019-04-20T17:36:21.553Z,19.80
2019-04-20T17:38:54.219Z,19.77
2019-04-20T17:41:42.717Z,19.79
2019-04-20T17:44:09.915Z,19.78
2019-04-20T17:46:39.136Z,19.70
2019-04-20T17:49:13.522Z,19.88
2019-04-20T17:51:58.158Z,19.81
2019-04-20T17:54:17.709Z,19.86
2019-04-20T17:56:49.328Z,19.79
2019-04-20T17:59:22.071Z,19.64
2019-04-20T18:02:26.621Z,19.27
2019-04-20T18:05:22.980Z,19.26
2019-04-20T18:07:52.081Z,19.66
2019-04-20T18:10:23.206Z,19.69
2019-04-20T18:12:44.603Z,19.82
2019-04-20T18:15:31.547Z,19.37
2019-04-20T18:18:23.673Z,19.51
2019-04-20T18:20:58.985Z,19.28
2019-04-20T18:23:36.341Z,19.15
2019-04-20T18:26:27.571Z,19.32
2019-04-20T18:28:58.655Z,18.93
2019-04-20T18:31:41.749Z,19.09
2019-04-20T18:34:22.184Z,18.57
2019-04-20T18:36:51.468Z,18.99
2019-04-20T18:39:29.019Z,19.04
2019-04-20T18:42:07.905Z,18.93
2019-04-20T18:44:47.451Z,19.06
2019-04-20T18:47:23.850Z,18.92
2019-04-20T18:49:46.591Z,18.86
2019-04-20T18:52:07.147Z,18.85
2019-04-20T18:54:42.539Z,18.48
2019-04-20T18:57:16.219Z,18.43
2019-04-20T18:59:50.461Z,18.44
2019-04-20T19:02:23.093Z,18.32
2019-04-20T19:04:50.091Z,18.45
2019-04-20T19:07:21.815Z,18.25
2019-04-20T19:10:00.337Z,17.98
2019-04-20T19:12:38.882Z,18.25
2019-04-20T19:15:37.316Z,18.01
2019-04-20T19:18:10.098Z,17.95
2019-04-20T19:20:39.371Z,17.41
2019-04-20T19:23:10.525Z,17.28
2019-04-20T19:25:42.824Z,17.32
2019-04-20T19:28:19.482Z,17.31
2019-04-20T19:31:01.572Z,16.83
2019-04-20T19:33:35.722Z,16.72
2019-04-20T19:36:04.718Z,16.83
2019-04-20T19:38:41.825Z,16.82
2019-04-20T19:41:13.893Z,16.96
2019-04-20T19:43:45.123Z,16.70
2019-04-20T19:46:39.390Z,16.94
2019-04-20T19:48:45.008Z,17.06
2019-04-20T19:51:29.827Z,16.97
2019-04-20T19:54:12.165Z,16.53
2019-04-20T19:56:33.765Z,16.53
2019-04-20T19:59:03.032Z,16.37
2019-04-20T20:01:21.891Z,16.44
2019-04-20T20:03:57.593Z,16.33
2019-04-20T20:06:32.537Z,16.00
2019-04-20T20:09:04.226Z,16.03
2019-04-20T20:11:38.461Z,15.82
2019-04-20T20:14:09.791Z,15.89
2019-04-20T20:16:58.845Z,15.85
2019-04-20T20:19:27.753Z,15.43
2019-04-20T20:21:58.919Z,15.56
2019-04-20T20:24:18.012Z,15.34
2019-04-20T20:26:56.330Z,15.67
2019-04-20T20:29:33.438Z,15.99
2019-04-20T20:32:10.158Z,15.71
2019-04-20T20:34:36.034Z,15.57
2019-04-20T20:37:06.301Z,15.54
2019-04-20T20:39:37.165Z,15.64
2019-04-20T20:42:20.627Z,15.81
2019-04-20T20:44:48.797Z,15.45
2019-04-20T20:47:36.739Z,15.22
2019-04-20T20:50:08.314Z,15.00
2019-04-20T20:52:32.507Z,15.31
2019-04-20T20:55:00.678Z,14.79
2019-04-20T20:57:35.429Z,15.04
2019-04-20T21:00:05.744Z,14.92
2019-04-20T21:02:42.043Z,15.13
2019-04-20T21:05:03.822Z,15.12
2019-04-20T21:07:36.540Z,14.70
2019-04-20T21:10:10.350Z,14.69
2019-04-20T21:12:46.720Z,14.40
2019-04-20T21:15:20.416Z,14.73
2019-04-20T21:18:09.095Z,14.81
2019-04-20T21:20:46.505Z,14.78
2019-04-20T21:23:06.994Z,14.68
2019-04-20T21:25:37.694Z,14.47
2019-04-20T21:28:06.525Z,14.49
2019-04-20T21:33:20.775Z,14.51
2019-04-20T21:35:52.166Z,14.50
2019-04-20T21:38:24.596Z,14.27
2019-04-20T21:41:03.400Z,14.44
2019-04-20T21:43:33.862Z,14.49
2019-04-20T21:46:04.934Z,14.28
2019-04-20T21:48:48.730Z,14.20
2019-04-20T21:51:19.019Z,14.53
2019-04-20T21:53:40.593Z,14.33
2019-04-20T21:56:12.199Z,14.23
2019-04-20T21:58:49.604Z,14.27
2019-04-20T22:01:27.259Z,14.16
2019-04-20T22:03:54.223Z,14.11
2019-04-20T22:06:26.644Z,14.10
2019-04-20T22:09:01.084Z,14.10
2019-04-20T22:11:31.591Z,13.93
2019-04-20T22:14:09.406Z,13.90
2019-04-20T22:16:41.737Z,13.58
2019-04-20T22:19:25.069Z,13.69
2019-04-20T22:21:53.400Z,13.66
2019-04-20T22:24:37.190Z,13.60
2019-04-20T22:26:54.859Z,13.64
2019-04-20T22:29:20.211Z,13.65
2019-04-20T22:32:00.485Z,12.87
2019-04-20T22:34:28.050Z,13.06
2019-04-20T22:36:58.223Z,13.04
2019-04-20T22:39:39.825Z,13.15
2019-04-20T22:42:09.250Z,12.50
2019-04-20T22:44:39.251Z,12.66
2019-04-20T22:47:13.798Z,12.77
2019-04-20T22:50:03.493Z,12.83
2019-04-20T22:52:29.375Z,11.96
2019-04-20T22:55:12.536Z,12.41
2019-04-20T22:57:36.275Z,12.45
2019-04-20T23:00:02.156Z,12.67
2019-04-20T23:02:28.284Z,12.65
2019-04-20T23:05:00.711Z,12.66
2019-04-20T23:07:32.704Z,12.63
2019-04-20T23:10:05.460Z,11.83
2019-04-20T23:12:40.219Z,12.16
2019-04-20T23:15:10.370Z,11.97
2019-04-20T23:17:45.904Z,12.36
2019-04-20T23:20:24.655Z,12.39
2019-04-20T23:22:51.187Z,12.36
2019-04-20T23:25:21.014Z,12.14
2019-04-20T23:28:00.513Z,12.35
2019-04-20T23:30:33.525Z,12.15
2019-04-20T23:33:00.021Z,12.17
2019-04-20T23:35:31.724Z,11.80
2019-04-20T23:38:11.225Z,11.83
2019-04-20T23:40:37.437Z,11.98
2019-04-20T23:43:24.975Z,11.66
2019-04-20T23:46:19.637Z,11.94
2019-04-20T23:49:13.535Z,12.06
2019-04-20T23:52:00.690Z,11.63
2019-04-20T23:54:19.818Z,12.05
2019-04-20T23:56:45.881Z,12.02
2019-04-20T23:59:19.250Z,12.15
